Alfredo Rodriguez Ballon International Airport
SPQU : now visible

Airfield :











YOU CAN JOIN US ON...

 
LOGIN :

Register | Disclaimer

   EN    FR    IT 

 









Legend :    VFR   Marginal VFR   IFR   Intensive IFR   Very Intensive IFR
Visi :
Ceiling :
>= 8 km
>= 3000ft
5 to 8 km
1000 to 3000 ft
1500m to 5 km
500 to 1000 ft
800 to 1500m
200 to 500 ft
< 800m
< 200 ft
Symbols :   Thunderstorms  Fog  Heavy snow  Heavy precipitations  Wind > 20 kt






- Airport Elevation : 8405 ft
- IATA code : AQP


SPQU - Alfredo Rodriguez Ballon International

CURRENT METAR :
  • 162000Z 26010KT 220V280 9999 FEW020 BKN070 19/12 Q1023 NOSIG RMK PP000

EXPIRED METARs :
  • 161900Z 25007KT 220V290 9999 -RA FEW025 BKN070 18/13 Q1024 NOSIG RMK PPTRZ
  • 161800Z 26008KT 220V290 9999 -RA FEW025 SCT070 17/13 Q1024 NOSIG RMK PP006
  • 161700Z 250010KT 9999 FEW040TCU FEW050 18/12 Q1024 NOSIG RMK PP000

TAF TAF SPQU
Valid from the 16 at 18:00 until the 17 at 18:00 UTC


161700Z 1618/1718 25010KT 8000 SCT015 BKN060 TX20/1618Z TN11/1710Z
BECMG 1621/1623 RA SCT010 BKN040
FM170330 03006KT 8000 SCT020 BKN110
FM171100 VRB04KT 9999 FEW060 SCT150
FM171730 25010KT 9999 SCT020 BKN060



MET'MAP, your aeronautical weather chart ! - Copyright ORBIFLY December 2007 - Disclaimer

ORBIFLY MET'MAP TEAM :

Programming & Development : Alexandra Zaïnal
Concept & original design : Baudouin d'Aumeries
Assistance for programming : Marc-Olivier Méhu
Technical & hardware support : Manuel Goepfert

Contact : metmap@orbifly.com




SOURCES & CREDITS :

   NOAA       Earth
Advisory